createdAt,value
2022-10-01T00:07:10.154Z,15.84
2022-10-01T00:28:56.681Z,14.35
2022-10-01T00:50:39.810Z,14.81
2022-10-01T01:12:44.870Z,14.68
2022-10-01T01:34:31.638Z,13.94
2022-10-01T01:56:16.728Z,14.66
2022-10-01T02:18:08.083Z,12.83
2022-10-01T02:39:52.913Z,13.90
2022-10-01T03:01:36.030Z,14.85
2022-10-01T03:23:19.445Z,10.95
2022-10-01T03:45:02.532Z,13.68
2022-10-01T04:06:45.534Z,13.17
2022-10-01T04:28:29.176Z,13.82
2022-10-01T04:50:12.291Z,12.47
2022-10-01T05:11:55.269Z,14.23
2022-10-01T05:33:38.364Z,12.91
2022-10-01T05:55:22.774Z,14.92
2022-10-01T06:17:05.881Z,13.92
2022-10-01T06:38:49.507Z,15.54
2022-10-01T07:00:35.201Z,13.92
2022-10-01T07:22:19.208Z,16.06
2022-10-01T07:44:03.642Z,14.55
2022-10-01T08:05:47.374Z,18.23
2022-10-01T08:27:30.422Z,30.57
2022-10-01T08:49:21.405Z,34.29
2022-10-01T09:11:12.437Z,36.42
2022-10-01T09:32:59.716Z,30.66
2022-10-01T09:54:49.562Z,23.94
2022-10-01T10:16:37.231Z,19.54
2022-10-01T10:38:22.650Z,19.24
2022-10-01T11:00:15.881Z,20.49
2022-10-01T11:22:10.264Z,20.51
2022-10-01T11:43:57.085Z,19.17
2022-10-01T12:05:42.231Z,18.96
2022-10-01T12:27:45.127Z,19.18
2022-10-01T12:49:35.422Z,19.12
2022-10-01T13:11:34.662Z,19.34
2022-10-01T13:33:26.511Z,19.29
2022-10-01T13:55:27.271Z,19.03
2022-10-01T14:17:11.441Z,18.10
2022-10-01T14:39:14.861Z,17.29
2022-10-01T15:00:59.236Z,16.61
2022-10-01T15:22:44.897Z,17.67
2022-10-01T15:44:45.896Z,16.26
2022-10-01T16:06:35.246Z,15.97
2022-10-01T16:28:29.647Z,15.69
2022-10-01T16:50:15.244Z,16.48
2022-10-01T17:11:58.476Z,17.32
2022-10-01T17:33:41.480Z,14.54
2022-10-01T17:55:24.507Z,17.19
2022-10-01T18:17:07.893Z,15.34
2022-10-01T18:39:05.336Z,15.83
2022-10-01T19:00:58.027Z,16.36
2022-10-01T19:22:58.721Z,15.91
2022-10-01T19:44:49.459Z,17.13
2022-10-01T20:06:36.443Z,16.30
2022-10-01T20:28:31.088Z,17.22
2022-10-01T20:50:20.746Z,16.26
2022-10-01T21:12:10.334Z,16.37
2022-10-01T21:33:58.294Z,16.63
2022-10-01T21:56:09.026Z,15.93
2022-10-01T22:17:54.519Z,16.45
2022-10-01T22:39:45.857Z,16.55
2022-10-01T23:01:40.954Z,16.66
2022-10-01T23:23:31.256Z,16.93
2022-10-01T23:45:23.518Z,16.48
